createdAt,value
2023-05-10T00:00:32.579Z,18.9160
2023-05-10T00:01:34.268Z,18.9320
2023-05-10T00:02:35.854Z,18.9367
2023-05-10T00:03:37.501Z,18.9065
2023-05-10T00:04:39.121Z,18.8652
2023-05-10T00:05:40.789Z,18.8564
2023-05-10T00:06:42.377Z,18.8654
2023-05-10T00:07:44.033Z,18.8827
2023-05-10T00:08:45.655Z,18.9036
2023-05-10T00:09:47.305Z,18.8767
2023-05-10T00:10:48.989Z,18.8437
2023-05-10T00:11:50.558Z,18.8365
2023-05-10T00:12:52.239Z,18.8478
2023-05-10T00:13:53.815Z,18.8663
2023-05-10T00:14:55.488Z,18.8804
2023-05-10T00:15:57.156Z,18.9047
2023-05-10T00:16:58.824Z,18.8993
2023-05-10T00:18:00.500Z,18.8654
2023-05-10T00:19:01.990Z,18.8463
2023-05-10T00:20:03.740Z,18.8478
2023-05-10T00:21:05.385Z,18.8492
2023-05-10T00:22:07.009Z,18.8624
2023-05-10T00:23:08.652Z,18.8704
2023-05-10T00:24:10.349Z,18.8837
2023-05-10T00:25:11.977Z,18.8375
2023-05-10T00:26:13.623Z,18.7892
2023-05-10T00:27:15.239Z,18.7683
2023-05-10T00:28:16.862Z,18.7625
2023-05-10T00:29:18.464Z,18.7781
2023-05-10T00:30:20.097Z,18.7872
2023-05-10T00:31:21.744Z,18.8106
2023-05-10T00:32:23.503Z,18.8356
2023-05-10T00:33:25.091Z,18.8073
2023-05-10T00:34:26.697Z,18.7675
2023-05-10T00:35:28.349Z,18.7553
2023-05-10T00:36:29.978Z,18.7533
2023-05-10T00:37:31.664Z,18.7584
2023-05-10T00:38:33.207Z,18.7859
2023-05-10T00:39:34.881Z,18.8052
2023-05-10T00:40:36.595Z,18.8118
2023-05-10T00:41:38.179Z,18.8063
2023-05-10T00:42:39.781Z,18.7950
2023-05-10T00:43:41.458Z,18.7638
2023-05-10T00:44:43.045Z,18.7502
2023-05-10T00:45:44.749Z,18.7652
2023-05-10T00:46:46.348Z,18.7617
2023-05-10T00:47:48.079Z,18.7709
2023-05-10T00:48:49.674Z,18.7748
2023-05-10T00:49:51.249Z,18.7917
2023-05-10T00:50:52.969Z,18.8020
2023-05-10T00:51:55.180Z,18.7642
2023-05-10T00:52:57.127Z,18.7208
2023-05-10T00:53:57.839Z,18.7021
2023-05-10T00:54:59.543Z,18.7001
2023-05-10T00:56:01.161Z,18.7161
2023-05-10T00:57:02.831Z,18.7221
2023-05-10T00:58:04.388Z,18.7352
2023-05-10T00:59:06.018Z,18.7619
2023-05-10T01:00:07.745Z,18.7703
2023-05-10T01:01:09.313Z,18.7373
2023-05-10T01:02:12.752Z,18.7128
2023-05-10T01:03:12.736Z,18.7145
2023-05-10T01:04:14.241Z,18.7075
2023-05-10T01:05:16.048Z,18.7231
2023-05-10T01:06:17.460Z,18.7198
2023-05-10T01:07:19.224Z,18.7229
2023-05-10T01:08:20.755Z,18.7451
2023-05-10T01:09:22.435Z,18.7500
2023-05-10T01:10:24.072Z,18.7116
2023-05-10T01:11:25.702Z,18.6892
2023-05-10T01:12:27.372Z,18.6806
2023-05-10T01:13:29.104Z,18.6756
2023-05-10T01:14:30.622Z,18.6793
2023-05-10T01:15:32.309Z,18.7003
2023-05-10T01:16:33.999Z,18.7177
2023-05-10T01:17:35.803Z,18.7430
2023-05-10T01:18:37.138Z,18.7354
2023-05-10T01:19:38.852Z,18.7128
2023-05-10T01:20:40.469Z,18.6939
2023-05-10T01:21:42.144Z,18.6880
2023-05-10T01:22:43.793Z,18.6933
2023-05-10T01:23:45.406Z,18.6982
2023-05-10T01:24:47.037Z,18.6999
2023-05-10T01:25:48.680Z,18.7069
2023-05-10T01:26:50.317Z,18.7239
2023-05-10T01:27:52.212Z,18.7231
2023-05-10T01:28:53.646Z,18.6949
2023-05-10T01:30:05.907Z,18.6927
2023-05-10T01:30:56.891Z,18.6871
2023-05-10T01:31:58.541Z,18.6744
2023-05-10T01:33:00.250Z,18.6769
2023-05-10T01:34:01.905Z,18.6736
2023-05-10T01:35:03.514Z,18.6672
2023-05-10T01:36:05.247Z,18.6906
2023-05-10T01:37:06.828Z,18.6812
2023-05-10T01:38:08.439Z,18.6524
2023-05-10T01:39:10.057Z,18.6452
2023-05-10T01:40:11.653Z,18.6352
2023-05-10T01:41:13.339Z,18.6288
2023-05-10T01:42:14.948Z,18.6101
2023-05-10T01:43:16.660Z,18.5844
2023-05-10T01:44:18.274Z,18.6111
2023-05-10T01:45:19.905Z,18.6237
2023-05-10T01:46:21.580Z,18.6606
2023-05-10T01:47:23.194Z,18.6713
2023-05-10T01:48:24.871Z,18.6750
2023-05-10T01:49:26.556Z,18.6672
2023-05-10T01:50:28.100Z,18.6658
2023-05-10T01:51:29.750Z,18.6606
2023-05-10T01:52:31.445Z,18.6459
2023-05-10T01:53:33.244Z,18.6565
2023-05-10T01:54:34.653Z,18.6650
2023-05-10T01:55:36.340Z,18.6611
2023-05-10T01:56:37.884Z,18.6442
2023-05-10T01:57:39.524Z,18.6409
2023-05-10T01:58:41.191Z,18.6366
2023-05-10T01:59:42.816Z,18.6430
2023-05-10T02:00:44.435Z,18.6288
2023-05-10T02:01:46.128Z,18.6202
2023-05-10T02:02:47.777Z,18.6323
2023-05-10T02:03:49.448Z,18.6321
2023-05-10T02:04:52.197Z,18.6107
2023-05-10T02:05:53.708Z,18.6035
2023-05-10T02:06:55.328Z,18.6015
2023-05-10T02:07:56.096Z,18.6046
2023-05-10T02:08:58.344Z,18.5637
2023-05-10T02:09:59.484Z,18.5618
2023-05-10T02:11:01.990Z,18.5627
2023-05-10T02:12:03.704Z,18.5758
2023-05-10T02:13:04.261Z,18.5984
2023-05-10T02:14:06.230Z,18.6046
2023-05-10T02:15:07.631Z,18.6027
2023-05-10T02:16:09.261Z,18.6046
2023-05-10T02:17:10.806Z,18.6044
2023-05-10T02:18:12.507Z,18.5822
2023-05-10T02:19:14.141Z,18.5805
2023-05-10T02:20:16.460Z,18.5783
2023-05-10T02:21:17.419Z,18.5793
2023-05-10T02:22:19.081Z,18.6048
2023-05-10T02:23:20.679Z,18.6048
2023-05-10T02:24:22.360Z,18.5953
2023-05-10T02:25:24.043Z,18.5900
2023-05-10T02:26:25.626Z,18.6015
2023-05-10T02:27:27.257Z,18.5563
2023-05-10T02:28:28.945Z,18.5277
2023-05-10T02:29:30.704Z,18.4973
2023-05-10T02:30:32.268Z,18.5333
2023-05-10T02:31:34.015Z,18.5421
2023-05-10T02:32:35.629Z,18.5335
2023-05-10T02:33:37.153Z,18.5230
2023-05-10T02:34:38.907Z,18.5310
2023-05-10T02:35:40.465Z,18.5462
2023-05-10T02:36:42.168Z,18.5364
2023-05-10T02:37:43.806Z,18.5177
2023-05-10T02:38:45.365Z,18.5115
2023-05-10T02:39:47.116Z,18.5357
2023-05-10T02:40:48.702Z,18.5696
2023-05-10T02:41:50.285Z,18.5770
2023-05-10T02:42:51.957Z,18.5705
2023-05-10T02:43:53.632Z,18.5705
2023-05-10T02:44:55.226Z,18.5594
2023-05-10T02:45:57.274Z,18.5150
2023-05-10T02:46:58.478Z,18.4949
2023-05-10T02:48:00.246Z,18.4684
2023-05-10T02:49:01.795Z,18.4478
2023-05-10T02:50:03.426Z,18.4867
2023-05-10T02:51:05.088Z,18.5090
2023-05-10T02:52:06.748Z,18.4809
2023-05-10T02:53:08.333Z,18.3199
2023-05-10T02:54:10.080Z,18.1964
2023-05-10T02:55:11.645Z,18.2603
2023-05-10T02:56:13.355Z,18.4304
2023-05-10T02:57:15.009Z,18.6635
2023-05-10T02:58:16.609Z,18.8541
2023-05-10T02:59:18.213Z,19.0162
2023-05-10T03:00:19.929Z,19.1992
2023-05-10T03:01:21.517Z,19.3779
2023-05-10T03:02:23.190Z,19.4911
2023-05-10T03:03:24.775Z,19.5429
2023-05-10T03:04:26.472Z,19.5451
2023-05-10T03:05:28.100Z,19.5086
2023-05-10T03:06:29.752Z,19.5209
2023-05-10T03:07:31.356Z,19.5223
2023-05-10T03:08:33.041Z,19.5252
2023-05-10T03:09:34.703Z,19.5154
2023-05-10T03:10:36.351Z,19.5291
2023-05-10T03:11:38.090Z,19.4509
2023-05-10T03:12:39.582Z,19.5310
2023-05-10T03:13:41.282Z,19.5702
2023-05-10T03:14:42.858Z,19.6162
2023-05-10T03:15:44.608Z,19.6402
2023-05-10T03:16:46.337Z,19.6575
2023-05-10T03:17:47.795Z,19.6579
2023-05-10T03:18:49.453Z,19.6470
2023-05-10T03:19:51.143Z,19.6828
2023-05-10T03:20:52.800Z,19.6370
2023-05-10T03:21:54.565Z,19.5807
2023-05-10T03:22:56.025Z,19.6078
2023-05-10T03:23:57.689Z,19.6793
2023-05-10T03:24:59.342Z,19.7380
2023-05-10T03:26:01.024Z,19.7312
2023-05-10T03:27:02.629Z,19.6737
2023-05-10T03:28:04.249Z,19.6234
2023-05-10T03:29:05.897Z,19.6975
2023-05-10T03:30:07.488Z,19.7664
2023-05-10T03:31:09.204Z,19.7875
2023-05-10T03:32:10.817Z,19.7972
2023-05-10T03:33:12.422Z,19.7986
2023-05-10T03:34:14.108Z,19.7378
2023-05-10T03:35:15.823Z,19.7491
2023-05-10T03:36:17.487Z,19.7643
2023-05-10T03:37:19.039Z,19.8130
2023-05-10T03:38:20.725Z,19.8212
2023-05-10T03:39:22.378Z,19.8337
2023-05-10T03:40:23.937Z,19.7752
2023-05-10T03:41:25.572Z,19.8161
2023-05-10T03:42:27.331Z,19.8810
2023-05-10T03:43:28.848Z,19.9163
2023-05-10T03:44:30.513Z,19.9621
2023-05-10T03:45:32.218Z,19.9566
2023-05-10T03:46:33.834Z,19.9332
2023-05-10T03:47:35.479Z,19.9221
2023-05-10T03:48:37.096Z,19.9894
2023-05-10T03:49:38.709Z,19.9909
2023-05-10T03:50:40.389Z,19.9155
2023-05-10T03:51:42.110Z,19.8491
2023-05-10T03:52:43.684Z,19.8204
2023-05-10T03:53:45.277Z,19.7801
2023-05-10T03:54:46.932Z,19.8105
2023-05-10T03:55:48.597Z,19.8744
2023-05-10T03:56:50.256Z,19.9223
2023-05-10T03:57:51.918Z,19.9375
2023-05-10T03:58:53.476Z,19.9114
2023-05-10T03:59:55.049Z,19.8676
2023-05-10T04:00:56.700Z,19.8459
2023-05-10T04:01:58.368Z,19.8849
2023-05-10T04:03:00.121Z,19.9180
2023-05-10T04:04:01.624Z,19.9631
2023-05-10T04:05:03.285Z,20.0213
2023-05-10T04:06:04.939Z,20.0441
2023-05-10T04:07:06.531Z,20.0843
2023-05-10T04:08:08.212Z,20.0437
2023-05-10T04:09:09.819Z,20.0523
2023-05-10T04:10:11.499Z,20.0533
2023-05-10T04:11:15.724Z,20.0383
2023-05-10T04:12:14.747Z,20.0502
2023-05-10T04:13:16.552Z,20.0654
2023-05-10T04:14:18.043Z,20.0991
2023-05-10T04:15:19.671Z,20.1269
2023-05-10T04:16:21.323Z,20.1283
2023-05-10T04:17:23.075Z,20.1184
2023-05-10T04:18:24.656Z,20.1024
2023-05-10T04:19:27.273Z,20.1462
2023-05-10T04:20:27.932Z,20.1850
2023-05-10T04:21:29.568Z,20.2218
2023-05-10T04:22:31.175Z,20.2261
2023-05-10T04:23:32.930Z,20.2374
2023-05-10T04:24:34.580Z,20.2437
2023-05-10T04:25:37.256Z,20.2433
2023-05-10T04:26:37.830Z,20.2326
2023-05-10T04:27:39.429Z,20.2267
2023-05-10T04:28:41.227Z,20.2538
2023-05-10T04:29:42.794Z,20.2261
2023-05-10T04:30:44.420Z,20.1488
2023-05-10T04:31:46.066Z,20.1262
2023-05-10T04:32:48.721Z,20.1548
2023-05-10T04:33:49.347Z,20.1731
2023-05-10T04:34:50.972Z,20.1700
2023-05-10T04:35:52.597Z,20.1710
2023-05-10T04:36:54.295Z,20.2152
2023-05-10T04:37:55.833Z,20.2312
2023-05-10T04:38:57.606Z,20.2384
2023-05-10T04:39:59.160Z,20.2185
2023-05-10T04:41:00.797Z,20.2326
2023-05-10T04:42:02.533Z,20.2515
2023-05-10T04:43:04.209Z,20.1554
2023-05-10T04:44:06.003Z,20.1392
2023-05-10T04:45:07.520Z,20.2119
2023-05-10T04:46:09.168Z,20.2585
2023-05-10T04:47:12.676Z,20.2620
2023-05-10T04:48:12.474Z,20.3082
2023-05-10T04:49:14.101Z,20.3294
2023-05-10T04:50:15.969Z,20.3485
2023-05-10T04:51:17.473Z,20.3674
2023-05-10T04:52:18.959Z,20.4037
2023-05-10T04:53:20.684Z,20.5069
2023-05-10T04:54:23.040Z,20.6975
2023-05-10T04:55:23.989Z,21.0194
2023-05-10T04:56:25.574Z,21.2864
2023-05-10T04:57:27.234Z,21.6220
2023-05-10T04:58:28.830Z,22.0509
2023-05-10T04:59:30.938Z,22.4377
2023-05-10T05:00:32.138Z,22.8898
2023-05-10T05:01:33.955Z,23.2129
2023-05-10T05:02:35.483Z,23.3999
2023-05-10T05:03:38.076Z,23.4857
2023-05-10T05:04:38.632Z,23.7577
2023-05-10T05:05:40.349Z,24.0970
2023-05-10T05:06:42.912Z,24.3918
2023-05-10T05:07:43.568Z,24.4690
2023-05-10T05:08:45.280Z,24.5089
2023-05-10T05:09:46.832Z,24.5471
2023-05-10T05:10:48.614Z,24.7227
2023-05-10T05:11:50.173Z,25.0261
2023-05-10T05:12:51.925Z,25.1884
2023-05-10T05:13:53.518Z,25.2488
2023-05-10T05:14:55.081Z,25.2173
2023-05-10T05:15:57.009Z,25.3063
2023-05-10T05:16:58.422Z,25.4928
2023-05-10T05:18:00.110Z,25.7401
2023-05-10T05:19:01.686Z,25.7746
2023-05-10T05:20:03.336Z,25.7715
2023-05-10T05:21:04.954Z,25.7335
2023-05-10T05:22:06.641Z,25.8391
2023-05-10T05:23:08.257Z,26.0258
2023-05-10T05:24:09.906Z,26.1827
2023-05-10T05:25:11.532Z,26.0924
2023-05-10T05:26:13.214Z,26.0106
2023-05-10T05:27:14.849Z,25.9015
2023-05-10T05:28:16.402Z,25.8687
2023-05-10T05:29:18.055Z,26.1254
2023-05-10T05:30:19.804Z,26.1973
2023-05-10T05:31:22.413Z,26.0889
2023-05-10T05:32:22.959Z,26.0642
2023-05-10T05:33:24.611Z,26.0359
2023-05-10T05:34:26.475Z,25.9437
2023-05-10T05:35:28.927Z,26.2452
2023-05-10T05:36:29.543Z,26.2672
2023-05-10T05:37:31.482Z,26.2764
2023-05-10T05:38:33.817Z,26.2475
2023-05-10T05:39:35.331Z,26.2323
2023-05-10T05:40:36.164Z,26.3255
2023-05-10T05:41:38.761Z,26.5348
2023-05-10T05:42:40.491Z,26.5328
2023-05-10T05:43:40.957Z,26.5153
2023-05-10T05:44:42.941Z,26.4578
2023-05-10T05:45:45.381Z,26.4574
2023-05-10T05:46:45.972Z,26.6476
2023-05-10T05:47:48.585Z,26.6716
2023-05-10T05:48:49.297Z,26.6344
2023-05-10T05:49:50.925Z,26.4759
2023-05-10T05:50:52.527Z,26.3719
2023-05-10T05:51:54.462Z,26.3590
2023-05-10T05:52:56.793Z,26.6295
2023-05-10T05:53:57.510Z,26.6305
2023-05-10T05:54:59.091Z,26.6305
2023-05-10T05:56:00.882Z,26.4469
2023-05-10T05:57:02.460Z,26.2861
2023-05-10T05:58:04.062Z,26.2887
2023-05-10T05:59:05.690Z,26.5131
2023-05-10T06:00:07.409Z,26.5083
2023-05-10T06:01:08.972Z,26.4857
2023-05-10T06:02:10.746Z,26.4177
2023-05-10T06:03:13.360Z,26.3789
2023-05-10T06:04:13.974Z,26.6049
2023-05-10T06:05:16.612Z,26.7178
2023-05-10T06:06:17.281Z,26.6651
2023-05-10T06:07:19.857Z,26.5658
2023-05-10T06:08:20.529Z,26.5358
2023-05-10T06:09:22.189Z,26.6176
2023-05-10T06:10:23.802Z,26.8113
2023-05-10T06:11:26.409Z,26.7733
2023-05-10T06:12:27.358Z,26.6482
2023-05-10T06:13:29.936Z,26.6525
2023-05-10T06:14:30.298Z,26.6726
2023-05-10T06:15:32.048Z,26.8666
2023-05-10T06:16:34.713Z,26.9522
2023-05-10T06:17:35.271Z,26.8553
2023-05-10T06:18:36.939Z,26.8134
2023-05-10T06:19:38.526Z,26.7606
2023-05-10T06:20:40.241Z,26.6246
2023-05-10T06:21:41.862Z,26.8764
2023-05-10T06:22:43.620Z,26.8565
2023-05-10T06:23:45.133Z,26.7854
2023-05-10T06:24:46.756Z,26.7517
2023-05-10T06:25:48.451Z,26.7534
2023-05-10T06:26:50.136Z,26.8957
2023-05-10T06:27:53.651Z,27.0740
2023-05-10T06:28:53.403Z,27.0128
2023-05-10T06:30:02.177Z,26.9997
2023-05-10T06:30:56.631Z,26.9941
2023-05-10T06:31:58.458Z,27.0206
2023-05-10T06:32:59.998Z,27.2587
2023-05-10T06:34:01.542Z,27.2431
2023-05-10T06:35:03.200Z,27.2774
2023-05-10T06:36:04.887Z,27.2063
2023-05-10T06:37:06.490Z,27.1151
2023-05-10T06:38:08.260Z,27.1013
2023-05-10T06:39:09.769Z,27.3367
2023-05-10T06:40:11.497Z,27.2355
2023-05-10T06:41:13.114Z,27.2088
2023-05-10T06:42:14.828Z,27.1769
2023-05-10T06:43:17.354Z,27.1410
2023-05-10T06:44:18.059Z,27.3037
2023-05-10T06:45:19.808Z,27.3612
2023-05-10T06:46:21.284Z,27.2003
2023-05-10T06:47:22.995Z,27.2096
2023-05-10T06:48:24.637Z,27.2581
2023-05-10T06:49:26.226Z,27.4423
2023-05-10T06:50:27.790Z,27.5615
2023-05-10T06:51:29.457Z,27.3945
2023-05-10T06:52:31.107Z,27.3774
2023-05-10T06:53:32.770Z,27.3396
2023-05-10T06:54:34.385Z,27.3957
2023-05-10T06:55:36.084Z,27.5300
2023-05-10T06:56:37.664Z,27.6590
2023-05-10T06:57:39.442Z,27.5358
2023-05-10T06:58:42.003Z,27.5530
2023-05-10T06:59:42.665Z,27.4234
2023-05-10T07:00:44.330Z,27.4464
2023-05-10T07:01:45.945Z,27.5855
2023-05-10T07:02:47.569Z,27.6861
2023-05-10T07:03:49.398Z,27.7163
2023-05-10T07:04:50.901Z,27.7221
2023-05-10T07:05:52.455Z,27.5376
2023-05-10T07:06:54.087Z,27.6221
2023-05-10T07:07:55.761Z,27.8262
2023-05-10T07:08:58.385Z,27.8084
2023-05-10T07:09:59.058Z,27.7983
2023-05-10T07:11:00.656Z,27.7295
2023-05-10T07:12:02.350Z,27.6459
2023-05-10T07:13:04.009Z,27.7866
2023-05-10T07:14:05.657Z,27.8646
2023-05-10T07:15:07.286Z,27.7706
2023-05-10T07:16:08.963Z,27.7523
2023-05-10T07:17:10.586Z,27.4871
2023-05-10T07:18:12.210Z,27.5750
2023-05-10T07:19:13.788Z,27.7552
2023-05-10T07:20:15.564Z,27.7184
2023-05-10T07:21:17.106Z,27.5867
2023-05-10T07:22:18.746Z,27.4173
2023-05-10T07:23:20.402Z,27.3394
2023-05-10T07:24:22.396Z,27.4323
2023-05-10T07:25:23.647Z,27.5204
2023-05-10T07:26:25.882Z,27.4592
2023-05-10T07:27:27.796Z,27.4464
2023-05-10T07:28:28.691Z,27.4557
2023-05-10T07:29:30.303Z,27.5343
2023-05-10T07:30:32.021Z,27.6870
2023-05-10T07:31:33.495Z,27.6161
2023-05-10T07:32:35.300Z,27.4522
2023-05-10T07:33:36.809Z,27.4321
2023-05-10T07:34:38.496Z,27.3546
2023-05-10T07:35:40.111Z,27.5576
2023-05-10T07:36:41.691Z,27.7340
2023-05-10T07:37:43.281Z,27.7829
2023-05-10T07:38:45.003Z,27.6866
2023-05-10T07:39:48.420Z,27.5845
2023-05-10T07:40:48.823Z,27.7661
2023-05-10T07:41:49.917Z,27.9265
2023-05-10T07:42:51.517Z,27.9556
2023-05-10T07:43:53.731Z,27.8396
2023-05-10T07:44:54.885Z,27.7823
2023-05-10T07:45:56.544Z,27.9848
2023-05-10T07:46:58.769Z,28.1448
2023-05-10T07:47:59.804Z,27.9791
2023-05-10T07:49:01.405Z,27.6853
2023-05-10T07:50:03.074Z,27.6247
2023-05-10T07:51:04.792Z,27.8694
2023-05-10T07:52:06.405Z,28.0742
2023-05-10T07:53:08.002Z,27.9595
2023-05-10T07:54:09.641Z,27.8236
2023-05-10T07:55:11.338Z,27.7506
2023-05-10T07:56:12.953Z,27.8562
2023-05-10T07:57:14.596Z,28.0023
2023-05-10T07:58:16.236Z,27.9263
2023-05-10T07:59:17.932Z,27.8772
2023-05-10T08:00:19.828Z,27.7889
2023-05-10T08:01:21.619Z,27.4694
2023-05-10T08:02:22.911Z,27.2985
2023-05-10T08:03:24.647Z,27.0890
2023-05-10T08:04:26.269Z,26.6661
2023-05-10T08:05:27.936Z,26.3863
2023-05-10T08:06:29.568Z,26.1955
2023-05-10T08:07:31.233Z,26.1174
2023-05-10T08:08:33.775Z,26.1259
2023-05-10T08:09:34.503Z,25.9687
2023-05-10T08:10:36.194Z,25.7043
2023-05-10T08:11:37.886Z,25.5489
2023-05-10T08:12:39.414Z,25.4330
2023-05-10T08:13:41.059Z,25.4761
2023-05-10T08:14:42.647Z,25.5719
2023-05-10T08:15:44.453Z,25.4353
2023-05-10T08:16:45.986Z,25.2389
2023-05-10T08:17:48.680Z,25.0787
2023-05-10T08:18:49.204Z,25.0643
2023-05-10T08:19:50.892Z,25.1608
2023-05-10T08:20:53.536Z,25.2705
2023-05-10T08:21:54.194Z,25.1152
2023-05-10T08:22:55.804Z,24.9199
2023-05-10T08:23:57.556Z,24.7414
2023-05-10T08:24:59.073Z,24.7457
2023-05-10T08:26:01.017Z,24.8396
2023-05-10T08:27:02.498Z,24.9254
2023-05-10T08:28:04.147Z,24.7734
2023-05-10T08:29:05.730Z,24.6444
2023-05-10T08:30:07.424Z,24.4951
2023-05-10T08:31:09.147Z,24.4719
2023-05-10T08:32:10.720Z,24.5393
2023-05-10T08:33:12.426Z,24.5686
2023-05-10T08:34:14.039Z,24.4709
2023-05-10T08:35:15.852Z,24.3975
2023-05-10T08:36:17.362Z,24.3191
2023-05-10T08:37:19.012Z,24.3486
2023-05-10T08:38:21.533Z,24.4922
2023-05-10T08:39:29.847Z,24.5927
2023-05-10T08:40:23.878Z,24.4672
2023-05-10T08:41:25.511Z,24.3347
2023-05-10T08:42:27.187Z,24.1979
2023-05-10T08:43:29.765Z,24.1722
2023-05-10T08:44:30.431Z,24.2587
2023-05-10T08:45:32.087Z,24.2618
2023-05-10T08:46:33.770Z,24.1128
2023-05-10T08:47:35.365Z,23.9477
2023-05-10T08:48:37.025Z,23.7908
2023-05-10T08:49:38.654Z,23.7920
2023-05-10T08:50:40.592Z,23.8768
2023-05-10T08:51:43.823Z,23.8994
2023-05-10T08:52:43.565Z,23.7669
2023-05-10T08:53:45.492Z,23.6408
2023-05-10T08:54:47.695Z,23.5330
2023-05-10T08:55:48.386Z,23.5223
2023-05-10T08:56:50.192Z,23.6176
2023-05-10T08:57:51.642Z,23.6667
2023-05-10T08:58:53.444Z,23.5391
2023-05-10T08:59:55.002Z,23.3939
2023-05-10T09:00:56.801Z,23.3193
2023-05-10T09:01:58.374Z,23.3148
2023-05-10T09:03:00.038Z,23.3994
2023-05-10T09:04:02.045Z,23.4847
2023-05-10T09:05:03.413Z,23.3929
2023-05-10T09:06:05.063Z,23.3185
2023-05-10T09:07:06.623Z,23.3082
2023-05-10T09:08:08.324Z,23.4313
2023-05-10T09:09:09.852Z,23.6583
2023-05-10T09:10:11.541Z,23.8563
2023-05-10T09:11:13.192Z,23.8575
2023-05-10T09:12:14.810Z,23.8226
2023-05-10T09:13:16.527Z,23.7577
2023-05-10T09:14:18.122Z,23.8062
2023-05-10T09:15:19.831Z,23.9787
2023-05-10T09:16:22.460Z,24.1114
2023-05-10T09:17:23.152Z,24.0678
2023-05-10T09:18:26.018Z,23.9633
2023-05-10T09:19:27.400Z,23.8723
2023-05-10T09:20:27.884Z,23.8935
2023-05-10T09:21:29.505Z,24.0130
2023-05-10T09:22:31.282Z,24.0335
2023-05-10T09:23:32.764Z,23.9302
2023-05-10T09:24:35.416Z,23.8220
2023-05-10T09:25:36.094Z,23.7094
2023-05-10T09:26:37.747Z,23.7061
2023-05-10T09:27:39.345Z,23.7932
2023-05-10T09:28:41.088Z,23.8269
2023-05-10T09:29:42.624Z,23.7308
2023-05-10T09:30:44.340Z,23.5706
2023-05-10T09:31:45.928Z,23.4444
2023-05-10T09:32:47.643Z,23.4826
2023-05-10T09:33:49.214Z,23.6309
2023-05-10T09:34:50.847Z,23.7447
2023-05-10T09:35:52.586Z,23.7080
2023-05-10T09:36:54.121Z,23.5907
2023-05-10T09:37:55.861Z,23.5141
2023-05-10T09:38:57.535Z,23.5656
2023-05-10T09:39:59.076Z,23.7271
2023-05-10T09:41:00.817Z,23.8062
2023-05-10T09:42:02.362Z,23.7513
2023-05-10T09:43:04.037Z,23.6492
2023-05-10T09:44:05.686Z,23.6131
2023-05-10T09:45:07.320Z,23.6979
2023-05-10T09:46:09.003Z,23.8875
2023-05-10T09:47:10.564Z,24.0001
2023-05-10T09:48:12.462Z,23.9647
2023-05-10T09:49:13.853Z,23.8325
2023-05-10T09:50:15.563Z,23.7546
2023-05-10T09:51:17.235Z,23.8031
2023-05-10T09:52:18.834Z,23.9510
2023-05-10T09:53:20.468Z,23.9690
2023-05-10T09:54:22.110Z,23.8764
2023-05-10T09:55:23.765Z,23.7129
2023-05-10T09:56:25.431Z,23.6120
2023-05-10T09:57:27.038Z,23.6837
2023-05-10T09:58:28.733Z,23.8271
2023-05-10T09:59:30.325Z,23.8335
2023-05-10T10:00:31.975Z,23.7608
2023-05-10T10:01:33.705Z,23.6110
2023-05-10T10:02:35.283Z,23.5383
2023-05-10T10:03:36.936Z,23.6102
2023-05-10T10:04:38.545Z,23.7486
2023-05-10T10:05:40.274Z,23.7443
2023-05-10T10:06:41.831Z,23.6268
2023-05-10T10:07:43.476Z,23.4531
2023-05-10T10:08:45.192Z,23.3775
2023-05-10T10:09:46.827Z,23.4323
2023-05-10T10:10:48.437Z,23.5346
2023-05-10T10:11:50.064Z,23.4381
2023-05-10T10:12:51.666Z,23.3013
2023-05-10T10:13:53.362Z,23.1916
2023-05-10T10:14:54.971Z,23.2111
2023-05-10T10:15:56.627Z,23.3489
2023-05-10T10:17:06.787Z,23.5194
2023-05-10T10:18:00.044Z,23.5030
2023-05-10T10:19:01.700Z,23.4399
2023-05-10T10:20:03.266Z,23.3393
2023-05-10T10:21:04.804Z,23.3407
2023-05-10T10:22:06.583Z,23.4987
2023-05-10T10:23:08.134Z,23.8218
2023-05-10T10:24:09.857Z,24.1309
2023-05-10T10:25:11.381Z,24.4347
2023-05-10T10:26:13.106Z,24.6697
2023-05-10T10:27:14.692Z,25.0294
2023-05-10T10:28:16.271Z,25.4957
2023-05-10T10:29:17.991Z,25.8703
2023-05-10T10:30:19.731Z,26.0271
2023-05-10T10:31:21.323Z,26.1879
2023-05-10T10:32:23.022Z,26.2257
2023-05-10T10:33:28.739Z,26.4802
2023-05-10T10:34:26.234Z,26.8473
2023-05-10T10:35:27.890Z,26.9902
2023-05-10T10:36:29.554Z,27.1375
2023-05-10T10:37:31.096Z,27.2632
2023-05-10T10:38:32.773Z,27.3608
2023-05-10T10:39:34.467Z,27.5650
2023-05-10T10:40:36.083Z,27.6580
2023-05-10T10:41:37.717Z,27.4220
2023-05-10T10:42:39.358Z,27.1034
2023-05-10T10:43:40.997Z,26.7460
2023-05-10T10:44:42.614Z,26.3608
2023-05-10T10:45:44.238Z,26.2460
2023-05-10T10:46:45.946Z,26.2824
2023-05-10T10:47:47.642Z,26.1505
2023-05-10T10:48:49.139Z,25.9490
2023-05-10T10:49:51.547Z,25.7130
2023-05-10T10:50:52.611Z,25.6111
2023-05-10T10:51:54.079Z,25.6392
2023-05-10T10:52:55.830Z,25.7415
2023-05-10T10:53:57.402Z,25.6195
2023-05-10T10:54:59.175Z,25.4747
2023-05-10T10:56:00.744Z,25.2987
2023-05-10T10:57:02.348Z,25.2128
2023-05-10T10:58:03.980Z,25.2878
2023-05-10T10:59:05.653Z,25.3582
2023-05-10T11:00:07.295Z,25.2551
2023-05-10T11:01:08.939Z,25.1294
2023-05-10T11:02:10.587Z,25.0162
2023-05-10T11:03:12.246Z,25.0686
2023-05-10T11:04:14.052Z,25.2338
2023-05-10T11:05:15.602Z,25.3309
2023-05-10T11:06:17.152Z,25.3180
2023-05-10T11:07:18.820Z,25.2368
2023-05-10T11:08:20.400Z,25.1760
2023-05-10T11:09:21.982Z,25.2161
2023-05-10T11:10:24.038Z,25.4016
2023-05-10T11:11:25.286Z,25.4981
2023-05-10T11:12:27.105Z,25.4517
2023-05-10T11:13:28.567Z,25.3626
2023-05-10T11:14:30.363Z,25.2902
2023-05-10T11:15:31.988Z,25.3508
2023-05-10T11:16:33.553Z,25.5187
2023-05-10T11:17:35.231Z,25.5367
2023-05-10T11:18:36.916Z,25.4663
2023-05-10T11:19:38.448Z,25.3915
2023-05-10T11:20:40.203Z,25.3011
2023-05-10T11:21:41.718Z,25.2989
2023-05-10T11:22:43.471Z,25.4001
2023-05-10T11:23:45.066Z,25.3398
2023-05-10T11:24:47.860Z,25.1748
2023-05-10T11:25:48.382Z,24.8959
2023-05-10T11:26:50.000Z,24.7921
2023-05-10T11:27:51.603Z,24.8258
2023-05-10T11:28:53.280Z,24.9222
2023-05-10T11:29:54.881Z,24.8486
2023-05-10T11:30:56.625Z,24.6818
2023-05-10T11:31:58.183Z,24.4937
2023-05-10T11:32:59.816Z,24.3698
2023-05-10T11:34:01.464Z,24.3842
2023-05-10T11:35:03.090Z,24.4493
2023-05-10T11:36:04.810Z,24.3587
2023-05-10T11:37:06.354Z,24.1788
2023-05-10T11:38:08.031Z,23.9824
2023-05-10T11:39:09.667Z,23.8748
2023-05-10T11:40:11.386Z,23.8879
2023-05-10T11:41:12.966Z,23.9933
2023-05-10T11:42:15.362Z,23.9937
2023-05-10T11:43:16.209Z,23.8573
2023-05-10T11:44:17.923Z,23.7078
2023-05-10T11:45:19.549Z,23.6227
2023-05-10T11:46:21.307Z,23.6772
2023-05-10T11:47:22.918Z,23.8376
2023-05-10T11:48:24.490Z,23.8976
2023-05-10T11:49:26.159Z,23.9269
2023-05-10T11:50:27.724Z,24.0313
2023-05-10T11:51:29.489Z,24.3680
2023-05-10T11:52:31.086Z,24.8971
2023-05-10T11:53:32.677Z,25.4903
2023-05-10T11:54:34.433Z,25.8052
2023-05-10T11:55:35.939Z,26.0710
2023-05-10T11:56:37.666Z,26.2713
2023-05-10T11:57:39.564Z,26.5975
2023-05-10T11:58:40.930Z,27.0654
2023-05-10T11:59:43.331Z,27.3860
2023-05-10T12:00:44.173Z,27.5259
2023-05-10T12:01:45.903Z,27.7108
2023-05-10T12:02:47.585Z,27.7878
2023-05-10T12:03:49.226Z,28.0637
2023-05-10T12:04:50.873Z,28.4254
2023-05-10T12:05:52.404Z,28.3899
2023-05-10T12:06:54.116Z,28.1374
2023-05-10T12:07:55.736Z,27.8737
2023-05-10T12:08:57.310Z,27.4846
2023-05-10T12:09:59.054Z,27.3372
2023-05-10T12:11:00.609Z,27.2217
2023-05-10T12:12:02.295Z,26.8222
2023-05-10T12:13:03.899Z,26.5564
2023-05-10T12:14:05.638Z,26.2735
2023-05-10T12:15:07.213Z,26.1526
2023-05-10T12:16:08.805Z,26.1967
2023-05-10T12:17:10.470Z,26.1195
2023-05-10T12:18:12.192Z,25.8301
2023-05-10T12:19:13.768Z,25.6136
2023-05-10T12:20:15.612Z,25.4262
2023-05-10T12:21:17.026Z,25.4003
2023-05-10T12:22:18.717Z,25.4712
2023-05-10T12:23:20.315Z,25.4077
2023-05-10T12:24:21.943Z,25.2031
2023-05-10T12:25:23.629Z,25.0353